sensor_id;sensor_type;location;lat;lon;timestamp;P1;durP1;ratioP1;P2;durP2;ratioP2
75096;SDS011;63684;47.964;11.186;2023-05-25T00:02:17;13.90;;;5.43;;
75096;SDS011;63684;47.964;11.186;2023-05-25T00:04:42;12.00;;;4.60;;
75096;SDS011;63684;47.964;11.186;2023-05-25T00:07:12;10.30;;;4.93;;
75096;SDS011;63684;47.964;11.186;2023-05-25T00:09:38;13.00;;;5.13;;
75096;SDS011;63684;47.964;11.186;2023-05-25T00:12:05;14.93;;;5.33;;
75096;SDS011;63684;47.964;11.186;2023-05-25T00:14:31;18.00;;;5.27;;
75096;SDS011;63684;47.964;11.186;2023-05-25T00:16:56;10.30;;;4.83;;
75096;SDS011;63684;47.964;11.186;2023-05-25T00:19:22;10.23;;;5.13;;
75096;SDS011;63684;47.964;11.186;2023-05-25T00:21:49;15.83;;;5.00;;
75096;SDS011;63684;47.964;11.186;2023-05-25T00:24:15;13.53;;;5.13;;
75096;SDS011;63684;47.964;11.186;2023-05-25T00:26:40;14.67;;;5.30;;
75096;SDS011;63684;47.964;11.186;2023-05-25T00:29:06;11.47;;;5.30;;
75096;SDS011;63684;47.964;11.186;2023-05-25T00:31:31;11.03;;;4.57;;
75096;SDS011;63684;47.964;11.186;2023-05-25T00:33:58;10.57;;;4.77;;
75096;SDS011;63684;47.964;11.186;2023-05-25T00:36:24;11.83;;;5.10;;
75096;SDS011;63684;47.964;11.186;2023-05-25T00:38:50;16.60;;;4.97;;
75096;SDS011;63684;47.964;11.186;2023-05-25T00:41:18;12.07;;;5.03;;
75096;SDS011;63684;47.964;11.186;2023-05-25T00:43:44;13.87;;;5.13;;
75096;SDS011;63684;47.964;11.186;2023-05-25T00:46:11;11.17;;;4.73;;
75096;SDS011;63684;47.964;11.186;2023-05-25T00:48:41;13.47;;;4.80;;
75096;SDS011;63684;47.964;11.186;2023-05-25T00:51:07;21.10;;;6.03;;
75096;SDS011;63684;47.964;11.186;2023-05-25T00:53:33;11.10;;;5.00;;
75096;SDS011;63684;47.964;11.186;2023-05-25T00:58:34;14.40;;;4.67;;
75096;SDS011;63684;47.964;11.186;2023-05-25T01:01:05;11.57;;;4.60;;
75096;SDS011;63684;47.964;11.186;2023-05-25T01:03:35;12.03;;;5.07;;
75096;SDS011;63684;47.964;11.186;2023-05-25T01:06:03;9.27;;;4.43;;
75096;SDS011;63684;47.964;11.186;2023-05-25T01:08:32;12.83;;;4.80;;
75096;SDS011;63684;47.964;11.186;2023-05-25T01:10:58;13.77;;;5.00;;
75096;SDS011;63684;47.964;11.186;2023-05-25T01:13:24;11.23;;;5.30;;
75096;SDS011;63684;47.964;11.186;2023-05-25T01:15:51;10.97;;;4.87;;
75096;SDS011;63684;47.964;11.186;2023-05-25T01:18:17;12.50;;;5.40;;
75096;SDS011;63684;47.964;11.186;2023-05-25T01:20:50;15.60;;;4.57;;
75096;SDS011;63684;47.964;11.186;2023-05-25T01:23:17;12.20;;;4.57;;
75096;SDS011;63684;47.964;11.186;2023-05-25T01:25:46;10.47;;;4.53;;
75096;SDS011;63684;47.964;11.186;2023-05-25T01:28:27;9.57;;;5.20;;
75096;SDS011;63684;47.964;11.186;2023-05-25T01:30:55;13.70;;;4.93;;
75096;SDS011;63684;47.964;11.186;2023-05-25T01:33:20;11.10;;;4.87;;
75096;SDS011;63684;47.964;11.186;2023-05-25T01:35:46;17.07;;;5.13;;
75096;SDS011;63684;47.964;11.186;2023-05-25T01:38:12;10.03;;;4.73;;
75096;SDS011;63684;47.964;11.186;2023-05-25T01:40:38;11.50;;;4.57;;
75096;SDS011;63684;47.964;11.186;2023-05-25T01:43:04;13.63;;;5.33;;
75096;SDS011;63684;47.964;11.186;2023-05-25T01:45:31;12.33;;;5.20;;
75096;SDS011;63684;47.964;11.186;2023-05-25T01:48:13;16.83;;;4.77;;
75096;SDS011;63684;47.964;11.186;2023-05-25T01:53:33;13.83;;;5.00;;
75096;SDS011;63684;47.964;11.186;2023-05-25T01:56:01;13.20;;;4.90;;
75096;SDS011;63684;47.964;11.186;2023-05-25T01:58:31;12.30;;;4.93;;
75096;SDS011;63684;47.964;11.186;2023-05-25T02:01:01;10.37;;;5.40;;
75096;SDS011;63684;47.964;11.186;2023-05-25T02:03:27;11.07;;;5.63;;
75096;SDS011;63684;47.964;11.186;2023-05-25T02:05:52;11.83;;;5.27;;
75096;SDS011;63684;47.964;11.186;2023-05-25T02:08:18;14.23;;;5.10;;
75096;SDS011;63684;47.964;11.186;2023-05-25T02:10:45;11.50;;;5.33;;
75096;SDS011;63684;47.964;11.186;2023-05-25T02:13:10;11.83;;;5.93;;
75096;SDS011;63684;47.964;11.186;2023-05-25T02:15:36;12.00;;;5.63;;
75096;SDS011;63684;47.964;11.186;2023-05-25T02:18:01;10.60;;;5.60;;
75096;SDS011;63684;47.964;11.186;2023-05-25T02:20:30;11.73;;;6.23;;
75096;SDS011;63684;47.964;11.186;2023-05-25T02:22:56;14.43;;;6.50;;
75096;SDS011;63684;47.964;11.186;2023-05-25T02:25:21;14.67;;;7.17;;
75096;SDS011;63684;47.964;11.186;2023-05-25T02:27:47;15.50;;;7.60;;
75096;SDS011;63684;47.964;11.186;2023-05-25T02:30:12;12.17;;;7.97;;
75096;SDS011;63684;47.964;11.186;2023-05-25T02:32:38;13.43;;;7.27;;
75096;SDS011;63684;47.964;11.186;2023-05-25T02:35:04;13.70;;;8.67;;
75096;SDS011;63684;47.964;11.186;2023-05-25T02:37:30;11.97;;;7.37;;
75096;SDS011;63684;47.964;11.186;2023-05-25T02:39:56;12.13;;;8.20;;
75096;SDS011;63684;47.964;11.186;2023-05-25T02:42:21;14.33;;;8.53;;
75096;SDS011;63684;47.964;11.186;2023-05-25T02:44:47;20.73;;;8.27;;
75096;SDS011;63684;47.964;11.186;2023-05-25T02:47:16;17.17;;;9.17;;
75096;SDS011;63684;47.964;11.186;2023-05-25T02:49:43;18.37;;;8.50;;
75096;SDS011;63684;47.964;11.186;2023-05-25T02:52:09;16.03;;;8.33;;
75096;SDS011;63684;47.964;11.186;2023-05-25T02:54:35;16.33;;;8.53;;
75096;SDS011;63684;47.964;11.186;2023-05-25T02:57:01;15.63;;;8.57;;
75096;SDS011;63684;47.964;11.186;2023-05-25T02:59:30;13.03;;;7.63;;
75096;SDS011;63684;47.964;11.186;2023-05-25T03:01:59;14.33;;;7.30;;
75096;SDS011;63684;47.964;11.186;2023-05-25T03:04:25;14.67;;;8.33;;
75096;SDS011;63684;47.964;11.186;2023-05-25T03:06:50;17.87;;;8.60;;
75096;SDS011;63684;47.964;11.186;2023-05-25T03:09:17;15.83;;;8.27;;
75096;SDS011;63684;47.964;11.186;2023-05-25T03:11:45;17.00;;;9.20;;
75096;SDS011;63684;47.964;11.186;2023-05-25T03:14:14;14.43;;;8.93;;
75096;SDS011;63684;47.964;11.186;2023-05-25T03:16:42;16.13;;;9.33;;
75096;SDS011;63684;47.964;11.186;2023-05-25T03:19:08;11.87;;;8.27;;
75096;SDS011;63684;47.964;11.186;2023-05-25T03:21:35;13.47;;;8.27;;
75096;SDS011;63684;47.964;11.186;2023-05-25T03:24:01;14.03;;;8.50;;
75096;SDS011;63684;47.964;11.186;2023-05-25T03:26:27;23.00;;;8.93;;
75096;SDS011;63684;47.964;11.186;2023-05-25T03:28:53;16.90;;;8.93;;
75096;SDS011;63684;47.964;11.186;2023-05-25T03:31:19;19.23;;;10.03;;
75096;SDS011;63684;47.964;11.186;2023-05-25T03:33:44;16.10;;;9.13;;
75096;SDS011;63684;47.964;11.186;2023-05-25T03:36:10;15.93;;;8.87;;
75096;SDS011;63684;47.964;11.186;2023-05-25T03:38:36;20.93;;;10.47;;
75096;SDS011;63684;47.964;11.186;2023-05-25T03:41:02;12.27;;;9.50;;
75096;SDS011;63684;47.964;11.186;2023-05-25T03:43:27;17.93;;;11.27;;
75096;SDS011;63684;47.964;11.186;2023-05-25T03:45:53;18.03;;;12.00;;
75096;SDS011;63684;47.964;11.186;2023-05-25T03:48:18;18.73;;;13.27;;
75096;SDS011;63684;47.964;11.186;2023-05-25T03:50:45;20.70;;;14.20;;
75096;SDS011;63684;47.964;11.186;2023-05-25T03:53:10;17.23;;;14.00;;
75096;SDS011;63684;47.964;11.186;2023-05-25T03:55:36;17.43;;;14.67;;
75096;SDS011;63684;47.964;11.186;2023-05-25T03:58:02;16.57;;;13.90;;
75096;SDS011;63684;47.964;11.186;2023-05-25T04:00:27;21.27;;;14.10;;
75096;SDS011;63684;47.964;11.186;2023-05-25T04:02:53;19.67;;;14.70;;
75096;SDS011;63684;47.964;11.186;2023-05-25T04:05:19;18.70;;;13.87;;
75096;SDS011;63684;47.964;11.186;2023-05-25T04:07:45;21.10;;;15.97;;
75096;SDS011;63684;47.964;11.186;2023-05-25T04:10:10;18.30;;;15.37;;
75096;SDS011;63684;47.964;11.186;2023-05-25T04:12:38;19.63;;;14.90;;
75096;SDS011;63684;47.964;11.186;2023-05-25T04:15:03;21.00;;;14.73;;
75096;SDS011;63684;47.964;11.186;2023-05-25T04:17:31;17.87;;;14.83;;
75096;SDS011;63684;47.964;11.186;2023-05-25T04:19:57;24.33;;;16.43;;
75096;SDS011;63684;47.964;11.186;2023-05-25T04:22:23;23.83;;;17.27;;
75096;SDS011;63684;47.964;11.186;2023-05-25T04:24:49;23.40;;;17.03;;
75096;SDS011;63684;47.964;11.186;2023-05-25T04:27:14;24.10;;;16.43;;
75096;SDS011;63684;47.964;11.186;2023-05-25T04:29:40;21.03;;;16.83;;
75096;SDS011;63684;47.964;11.186;2023-05-25T04:32:19;25.70;;;17.60;;
75096;SDS011;63684;47.964;11.186;2023-05-25T04:34:52;25.03;;;17.10;;
75096;SDS011;63684;47.964;11.186;2023-05-25T04:37:34;21.33;;;17.27;;
75096;SDS011;63684;47.964;11.186;2023-05-25T04:40:01;21.53;;;17.10;;
75096;SDS011;63684;47.964;11.186;2023-05-25T04:42:30;22.27;;;18.17;;
75096;SDS011;63684;47.964;11.186;2023-05-25T04:44:56;26.27;;;17.07;;
75096;SDS011;63684;47.964;11.186;2023-05-25T04:47:23;24.17;;;17.07;;
75096;SDS011;63684;47.964;11.186;2023-05-25T04:49:49;22.27;;;17.40;;
75096;SDS011;63684;47.964;11.186;2023-05-25T04:52:14;22.20;;;16.37;;
75096;SDS011;63684;47.964;11.186;2023-05-25T04:54:40;21.30;;;17.17;;
75096;SDS011;63684;47.964;11.186;2023-05-25T04:57:07;21.60;;;16.37;;
75096;SDS011;63684;47.964;11.186;2023-05-25T04:59:32;23.17;;;17.47;;
75096;SDS011;63684;47.964;11.186;2023-05-25T05:01:58;20.93;;;15.23;;
75096;SDS011;63684;47.964;11.186;2023-05-25T05:04:24;22.23;;;16.87;;
75096;SDS011;63684;47.964;11.186;2023-05-25T05:06:51;19.27;;;15.90;;
75096;SDS011;63684;47.964;11.186;2023-05-25T05:09:21;27.83;;;15.70;;
75096;SDS011;63684;47.964;11.186;2023-05-25T05:11:47;20.87;;;15.67;;
75096;SDS011;63684;47.964;11.186;2023-05-25T05:14:12;18.43;;;14.70;;
75096;SDS011;63684;47.964;11.186;2023-05-25T05:16:40;19.00;;;13.63;;
75096;SDS011;63684;47.964;11.186;2023-05-25T05:19:06;20.37;;;14.90;;
75096;SDS011;63684;47.964;11.186;2023-05-25T05:21:31;17.03;;;12.53;;
75096;SDS011;63684;47.964;11.186;2023-05-25T05:23:57;17.17;;;13.07;;
75096;SDS011;63684;47.964;11.186;2023-05-25T05:26:23;19.33;;;13.27;;
75096;SDS011;63684;47.964;11.186;2023-05-25T05:28:48;14.57;;;11.93;;
75096;SDS011;63684;47.964;11.186;2023-05-25T05:31:16;25.13;;;13.10;;
75096;SDS011;63684;47.964;11.186;2023-05-25T05:33:43;19.23;;;13.57;;
75096;SDS011;63684;47.964;11.186;2023-05-25T05:36:09;18.10;;;12.63;;
75096;SDS011;63684;47.964;11.186;2023-05-25T05:38:35;18.40;;;14.37;;
75096;SDS011;63684;47.964;11.186;2023-05-25T05:41:01;18.47;;;13.33;;
75096;SDS011;63684;47.964;11.186;2023-05-25T05:43:27;28.33;;;16.90;;
75096;SDS011;63684;47.964;11.186;2023-05-25T05:45:52;22.40;;;15.80;;
75096;SDS011;63684;47.964;11.186;2023-05-25T05:48:18;22.27;;;16.53;;
75096;SDS011;63684;47.964;11.186;2023-05-25T05:50:43;16.93;;;14.03;;
75096;SDS011;63684;47.964;11.186;2023-05-25T05:53:11;18.20;;;12.63;;
75096;SDS011;63684;47.964;11.186;2023-05-25T05:55:36;18.83;;;13.63;;
75096;SDS011;63684;47.964;11.186;2023-05-25T05:58:02;14.80;;;12.87;;
75096;SDS011;63684;47.964;11.186;2023-05-25T06:00:27;16.93;;;13.00;;
75096;SDS011;63684;47.964;11.186;2023-05-25T06:02:53;12.97;;;10.33;;
75096;SDS011;63684;47.964;11.186;2023-05-25T06:05:22;15.83;;;12.13;;
75096;SDS011;63684;47.964;11.186;2023-05-25T06:07:47;19.47;;;12.30;;
75096;SDS011;63684;47.964;11.186;2023-05-25T06:10:14;13.23;;;11.07;;
75096;SDS011;63684;47.964;11.186;2023-05-25T06:12:41;16.07;;;11.37;;
75096;SDS011;63684;47.964;11.186;2023-05-25T06:15:08;12.33;;;9.60;;
75096;SDS011;63684;47.964;11.186;2023-05-25T06:17:35;15.97;;;11.37;;
75096;SDS011;63684;47.964;11.186;2023-05-25T06:20:01;9.80;;;8.80;;
75096;SDS011;63684;47.964;11.186;2023-05-25T06:22:27;11.47;;;9.53;;
75096;SDS011;63684;47.964;11.186;2023-05-25T06:24:54;13.43;;;9.97;;
75096;SDS011;63684;47.964;11.186;2023-05-25T06:27:20;10.93;;;9.30;;
75096;SDS011;63684;47.964;11.186;2023-05-25T06:29:47;10.57;;;9.47;;
75096;SDS011;63684;47.964;11.186;2023-05-25T06:32:13;10.70;;;9.37;;
75096;SDS011;63684;47.964;11.186;2023-05-25T06:34:38;11.20;;;8.93;;
75096;SDS011;63684;47.964;11.186;2023-05-25T06:37:04;11.27;;;8.50;;
75096;SDS011;63684;47.964;11.186;2023-05-25T06:39:30;10.87;;;9.00;;
75096;SDS011;63684;47.964;11.186;2023-05-25T06:41:56;9.63;;;8.67;;
75096;SDS011;63684;47.964;11.186;2023-05-25T06:44:27;9.87;;;8.33;;
75096;SDS011;63684;47.964;11.186;2023-05-25T06:46:53;13.30;;;9.53;;
75096;SDS011;63684;47.964;11.186;2023-05-25T06:49:18;11.47;;;8.90;;
75096;SDS011;63684;47.964;11.186;2023-05-25T06:51:44;9.67;;;7.90;;
75096;SDS011;63684;47.964;11.186;2023-05-25T06:54:10;10.47;;;8.30;;
75096;SDS011;63684;47.964;11.186;2023-05-25T06:56:37;10.70;;;8.23;;
75096;SDS011;63684;47.964;11.186;2023-05-25T06:59:03;11.00;;;7.97;;
75096;SDS011;63684;47.964;11.186;2023-05-25T07:01:28;12.17;;;9.10;;
75096;SDS011;63684;47.964;11.186;2023-05-25T07:03:54;9.87;;;8.43;;
75096;SDS011;63684;47.964;11.186;2023-05-25T07:06:19;10.43;;;8.17;;
75096;SDS011;63684;47.964;11.186;2023-05-25T07:08:45;10.30;;;8.10;;
75096;SDS011;63684;47.964;11.186;2023-05-25T07:11:10;13.50;;;8.63;;
75096;SDS011;63684;47.964;11.186;2023-05-25T07:13:38;14.30;;;8.80;;
75096;SDS011;63684;47.964;11.186;2023-05-25T07:16:03;19.73;;;9.27;;
75096;SDS011;63684;47.964;11.186;2023-05-25T07:18:29;10.97;;;7.80;;
75096;SDS011;63684;47.964;11.186;2023-05-25T07:20:54;7.77;;;6.87;;
75096;SDS011;63684;47.964;11.186;2023-05-25T07:23:20;10.70;;;8.40;;
75096;SDS011;63684;47.964;11.186;2023-05-25T07:25:45;9.70;;;7.77;;
75096;SDS011;63684;47.964;11.186;2023-05-25T07:28:11;30.63;;;10.77;;
75096;SDS011;63684;47.964;11.186;2023-05-25T07:30:36;10.70;;;8.70;;
75096;SDS011;63684;47.964;11.186;2023-05-25T07:33:01;9.20;;;7.80;;
75096;SDS011;63684;47.964;11.186;2023-05-25T07:35:27;11.53;;;8.60;;
75096;SDS011;63684;47.964;11.186;2023-05-25T07:37:59;9.37;;;7.67;;
75096;SDS011;63684;47.964;11.186;2023-05-25T07:40:25;13.17;;;8.27;;
75096;SDS011;63684;47.964;11.186;2023-05-25T07:42:50;9.67;;;8.27;;
75096;SDS011;63684;47.964;11.186;2023-05-25T07:45:16;10.20;;;9.30;;
75096;SDS011;63684;47.964;11.186;2023-05-25T07:47:41;15.13;;;9.70;;
75096;SDS011;63684;47.964;11.186;2023-05-25T07:50:07;10.50;;;8.00;;
75096;SDS011;63684;47.964;11.186;2023-05-25T07:52:33;8.67;;;7.70;;
75096;SDS011;63684;47.964;11.186;2023-05-25T07:54:58;12.43;;;8.43;;
75096;SDS011;63684;47.964;11.186;2023-05-25T07:57:23;12.00;;;9.50;;
75096;SDS011;63684;47.964;11.186;2023-05-25T07:59:49;11.53;;;9.63;;
75096;SDS011;63684;47.964;11.186;2023-05-25T08:02:15;15.43;;;10.60;;
75096;SDS011;63684;47.964;11.186;2023-05-25T08:04:40;11.07;;;9.47;;
75096;SDS011;63684;47.964;11.186;2023-05-25T08:07:06;11.87;;;9.00;;
75096;SDS011;63684;47.964;11.186;2023-05-25T08:09:31;8.50;;;7.60;;
75096;SDS011;63684;47.964;11.186;2023-05-25T08:11:57;13.73;;;8.65;;
75096;SDS011;63684;47.964;11.186;2023-05-25T08:14:22;13.00;;;7.57;;
75096;SDS011;63684;47.964;11.186;2023-05-25T08:16:48;10.57;;;7.47;;
75096;SDS011;63684;47.964;11.186;2023-05-25T08:19:14;8.03;;;6.20;;
75096;SDS011;63684;47.964;11.186;2023-05-25T08:21:40;11.40;;;7.90;;
75096;SDS011;63684;47.964;11.186;2023-05-25T08:24:05;9.65;;;8.65;;
75096;SDS011;63684;47.964;11.186;2023-05-25T08:26:32;10.40;;;7.97;;
75096;SDS011;63684;47.964;11.186;2023-05-25T08:29:00;9.50;;;7.60;;
75096;SDS011;63684;47.964;11.186;2023-05-25T08:31:32;10.18;;;8.82;;
75096;SDS011;63684;47.964;11.186;2023-05-25T08:33:58;12.73;;;7.90;;
75096;SDS011;63684;47.964;11.186;2023-05-25T08:36:24;9.80;;;8.63;;
75096;SDS011;63684;47.964;11.186;2023-05-25T08:38:50;17.00;;;9.30;;
75096;SDS011;63684;47.964;11.186;2023-05-25T08:41:15;17.07;;;7.67;;
75096;SDS011;63684;47.964;11.186;2023-05-25T08:43:41;11.60;;;8.00;;
75096;SDS011;63684;47.964;11.186;2023-05-25T08:46:07;14.80;;;9.73;;
75096;SDS011;63684;47.964;11.186;2023-05-25T08:48:34;10.68;;;8.55;;
75096;SDS011;63684;47.964;11.186;2023-05-25T08:51:10;10.10;;;9.00;;
75096;SDS011;63684;47.964;11.186;2023-05-25T08:53:36;15.27;;;8.95;;
75096;SDS011;63684;47.964;11.186;2023-05-25T08:56:04;14.65;;;10.32;;
75096;SDS011;63684;47.964;11.186;2023-05-25T08:58:38;12.33;;;9.87;;
75096;SDS011;63684;47.964;11.186;2023-05-25T09:01:09;15.83;;;9.63;;
75096;SDS011;63684;47.964;11.186;2023-05-25T09:03:38;10.10;;;8.90;;
75096;SDS011;63684;47.964;11.186;2023-05-25T09:06:04;12.20;;;8.10;;
75096;SDS011;63684;47.964;11.186;2023-05-25T09:08:30;11.82;;;8.85;;
75096;SDS011;63684;47.964;11.186;2023-05-25T09:10:56;17.00;;;8.75;;
75096;SDS011;63684;47.964;11.186;2023-05-25T09:13:21;8.90;;;7.90;;
75096;SDS011;63684;47.964;11.186;2023-05-25T09:15:47;11.82;;;8.13;;
75096;SDS011;63684;47.964;11.186;2023-05-25T09:18:13;9.98;;;7.93;;
75096;SDS011;63684;47.964;11.186;2023-05-25T09:20:38;12.35;;;8.40;;
75096;SDS011;63684;47.964;11.186;2023-05-25T09:23:04;19.75;;;9.18;;
75096;SDS011;63684;47.964;11.186;2023-05-25T09:25:30;16.58;;;8.98;;
75096;SDS011;63684;47.964;11.186;2023-05-25T09:27:56;13.00;;;7.93;;
75096;SDS011;63684;47.964;11.186;2023-05-25T09:30:25;11.23;;;8.95;;
75096;SDS011;63684;47.964;11.186;2023-05-25T09:33:07;10.55;;;8.80;;
75096;SDS011;63684;47.964;11.186;2023-05-25T09:35:34;7.85;;;6.57;;
75096;SDS011;63684;47.964;11.186;2023-05-25T09:38:00;11.25;;;8.35;;
75096;SDS011;63684;47.964;11.186;2023-05-25T09:40:25;21.15;;;9.65;;
75096;SDS011;63684;47.964;11.186;2023-05-25T09:42:51;11.90;;;8.73;;
75096;SDS011;63684;47.964;11.186;2023-05-25T09:45:16;16.58;;;8.38;;
75096;SDS011;63684;47.964;11.186;2023-05-25T09:47:42;7.95;;;7.15;;
75096;SDS011;63684;47.964;11.186;2023-05-25T09:50:08;11.38;;;7.50;;
75096;SDS011;63684;47.964;11.186;2023-05-25T09:52:34;19.05;;;6.72;;
75096;SDS011;63684;47.964;11.186;2023-05-25T09:55:00;10.70;;;7.78;;
75096;SDS011;63684;47.964;11.186;2023-05-25T09:57:26;13.70;;;8.80;;
75096;SDS011;63684;47.964;11.186;2023-05-25T09:59:52;9.05;;;8.13;;
75096;SDS011;63684;47.964;11.186;2023-05-25T10:02:17;12.32;;;10.02;;
75096;SDS011;63684;47.964;11.186;2023-05-25T10:04:43;10.98;;;9.40;;
75096;SDS011;63684;47.964;11.186;2023-05-25T10:07:08;13.18;;;10.02;;
75096;SDS011;63684;47.964;11.186;2023-05-25T10:09:37;14.40;;;10.23;;
75096;SDS011;63684;47.964;11.186;2023-05-25T10:12:04;12.50;;;8.95;;
75096;SDS011;63684;47.964;11.186;2023-05-25T10:14:31;13.15;;;9.90;;
75096;SDS011;63684;47.964;11.186;2023-05-25T10:17:00;12.68;;;9.18;;
75096;SDS011;63684;47.964;11.186;2023-05-25T10:22:02;10.32;;;8.13;;
75096;SDS011;63684;47.964;11.186;2023-05-25T10:27:33;13.40;;;9.82;;
75096;SDS011;63684;47.964;11.186;2023-05-25T10:30:05;10.80;;;9.43;;
75096;SDS011;63684;47.964;11.186;2023-05-25T10:32:32;12.98;;;9.02;;
75096;SDS011;63684;47.964;11.186;2023-05-25T10:34:58;16.42;;;10.10;;
75096;SDS011;63684;47.964;11.186;2023-05-25T10:37:25;11.02;;;9.50;;
75096;SDS011;63684;47.964;11.186;2023-05-25T10:39:52;10.82;;;8.82;;
75096;SDS011;63684;47.964;11.186;2023-05-25T10:42:18;13.40;;;8.93;;
75096;SDS011;63684;47.964;11.186;2023-05-25T10:44:43;12.82;;;10.30;;
75096;SDS011;63684;47.964;11.186;2023-05-25T10:47:09;10.52;;;9.40;;
75096;SDS011;63684;47.964;11.186;2023-05-25T10:49:50;12.57;;;9.95;;
75096;SDS011;63684;47.964;11.186;2023-05-25T10:52:17;11.52;;;8.88;;
75096;SDS011;63684;47.964;11.186;2023-05-25T10:54:47;11.57;;;9.40;;
75096;SDS011;63684;47.964;11.186;2023-05-25T10:57:19;10.70;;;8.23;;
75096;SDS011;63684;47.964;11.186;2023-05-25T10:59:49;11.77;;;9.57;;
75096;SDS011;63684;47.964;11.186;2023-05-25T11:02:16;10.00;;;9.02;;
75096;SDS011;63684;47.964;11.186;2023-05-25T11:04:47;9.98;;;9.00;;
75096;SDS011;63684;47.964;11.186;2023-05-25T11:07:13;9.60;;;8.70;;
75096;SDS011;63684;47.964;11.186;2023-05-25T11:09:40;12.43;;;8.73;;
75096;SDS011;63684;47.964;11.186;2023-05-25T11:12:28;8.88;;;7.97;;
75096;SDS011;63684;47.964;11.186;2023-05-25T11:15:12;8.60;;;7.70;;
75096;SDS011;63684;47.964;11.186;2023-05-25T11:17:56;8.77;;;7.90;;
75096;SDS011;63684;47.964;11.186;2023-05-25T11:20:25;9.55;;;8.57;;
75096;SDS011;63684;47.964;11.186;2023-05-25T11:22:52;9.75;;;8.20;;
75096;SDS011;63684;47.964;11.186;2023-05-25T11:28:12;9.35;;;7.57;;
75096;SDS011;63684;47.964;11.186;2023-05-25T11:30:39;7.72;;;6.85;;
75096;SDS011;63684;47.964;11.186;2023-05-25T11:33:05;10.82;;;7.15;;
75096;SDS011;63684;47.964;11.186;2023-05-25T11:35:31;11.77;;;7.57;;
75096;SDS011;63684;47.964;11.186;2023-05-25T11:37:58;11.70;;;7.63;;
75096;SDS011;63684;47.964;11.186;2023-05-25T11:40:27;7.78;;;7.07;;
75096;SDS011;63684;47.964;11.186;2023-05-25T11:42:53;12.02;;;7.88;;
75096;SDS011;63684;47.964;11.186;2023-05-25T11:45:20;9.48;;;7.95;;
75096;SDS011;63684;47.964;11.186;2023-05-25T11:47:46;8.32;;;7.35;;
75096;SDS011;63684;47.964;11.186;2023-05-25T11:50:15;10.02;;;7.93;;
75096;SDS011;63684;47.964;11.186;2023-05-25T11:52:43;9.50;;;7.57;;
75096;SDS011;63684;47.964;11.186;2023-05-25T11:55:10;9.25;;;8.05;;
75096;SDS011;63684;47.964;11.186;2023-05-25T11:57:36;11.45;;;8.75;;
75096;SDS011;63684;47.964;11.186;2023-05-25T12:00:03;9.45;;;7.72;;
75096;SDS011;63684;47.964;11.186;2023-05-25T12:02:36;10.00;;;8.07;;
75096;SDS011;63684;47.964;11.186;2023-05-25T12:05:02;11.32;;;7.70;;
75096;SDS011;63684;47.964;11.186;2023-05-25T12:07:29;10.40;;;7.75;;
75096;SDS011;63684;47.964;11.186;2023-05-25T12:10:11;11.40;;;7.70;;
75096;SDS011;63684;47.964;11.186;2023-05-25T12:12:48;8.55;;;7.35;;
75096;SDS011;63684;47.964;11.186;2023-05-25T12:15:15;9.30;;;7.13;;
75096;SDS011;63684;47.964;11.186;2023-05-25T12:17:45;7.45;;;6.75;;
75096;SDS011;63684;47.964;11.186;2023-05-25T12:20:11;9.90;;;7.22;;
75096;SDS011;63684;47.964;11.186;2023-05-25T12:22:37;9.65;;;6.95;;
75096;SDS011;63684;47.964;11.186;2023-05-25T12:25:04;11.07;;;7.18;;
75096;SDS011;63684;47.964;11.186;2023-05-25T12:27:31;10.18;;;8.13;;
75096;SDS011;63684;47.964;11.186;2023-05-25T12:29:57;8.13;;;7.32;;
75096;SDS011;63684;47.964;11.186;2023-05-25T12:32:23;9.80;;;7.05;;
75096;SDS011;63684;47.964;11.186;2023-05-25T12:34:48;8.50;;;6.80;;
75096;SDS011;63684;47.964;11.186;2023-05-25T12:37:18;8.25;;;7.18;;
75096;SDS011;63684;47.964;11.186;2023-05-25T12:39:44;10.68;;;6.97;;
75096;SDS011;63684;47.964;11.186;2023-05-25T12:42:13;9.65;;;7.25;;
75096;SDS011;63684;47.964;11.186;2023-05-25T12:44:40;7.93;;;6.28;;
75096;SDS011;63684;47.964;11.186;2023-05-25T12:49:45;9.20;;;6.97;;
75096;SDS011;63684;47.964;11.186;2023-05-25T12:52:30;8.10;;;6.88;;
75096;SDS011;63684;47.964;11.186;2023-05-25T12:54:57;10.32;;;7.30;;
75096;SDS011;63684;47.964;11.186;2023-05-25T12:57:32;10.98;;;6.95;;
75096;SDS011;63684;47.964;11.186;2023-05-25T12:59:59;9.85;;;7.07;;
75096;SDS011;63684;47.964;11.186;2023-05-25T13:02:25;10.25;;;7.18;;
75096;SDS011;63684;47.964;11.186;2023-05-25T13:04:50;11.48;;;7.05;;
75096;SDS011;63684;47.964;11.186;2023-05-25T13:07:16;7.82;;;6.72;;
75096;SDS011;63684;47.964;11.186;2023-05-25T13:09:41;9.50;;;7.20;;
75096;SDS011;63684;47.964;11.186;2023-05-25T13:12:07;7.03;;;6.32;;
75096;SDS011;63684;47.964;11.186;2023-05-25T13:14:32;8.45;;;6.07;;
75096;SDS011;63684;47.964;11.186;2023-05-25T13:16:57;8.80;;;5.95;;
75096;SDS011;63684;47.964;11.186;2023-05-25T13:19:23;6.50;;;5.68;;
75096;SDS011;63684;47.964;11.186;2023-05-25T13:21:49;9.75;;;6.47;;
75096;SDS011;63684;47.964;11.186;2023-05-25T13:24:16;7.43;;;6.03;;
75096;SDS011;63684;47.964;11.186;2023-05-25T13:26:43;9.60;;;6.28;;
75096;SDS011;63684;47.964;11.186;2023-05-25T13:29:09;7.25;;;5.55;;
75096;SDS011;63684;47.964;11.186;2023-05-25T13:31:35;8.10;;;5.68;;
75096;SDS011;63684;47.964;11.186;2023-05-25T13:34:00;7.20;;;5.20;;
75096;SDS011;63684;47.964;11.186;2023-05-25T13:36:27;5.82;;;5.07;;
75096;SDS011;63684;47.964;11.186;2023-05-25T13:38:53;6.88;;;5.28;;
75096;SDS011;63684;47.964;11.186;2023-05-25T13:41:18;6.30;;;5.45;;
75096;SDS011;63684;47.964;11.186;2023-05-25T13:43:44;6.93;;;5.63;;
75096;SDS011;63684;47.964;11.186;2023-05-25T13:46:10;6.15;;;4.80;;
75096;SDS011;63684;47.964;11.186;2023-05-25T13:48:35;8.80;;;5.35;;
75096;SDS011;63684;47.964;11.186;2023-05-25T13:51:01;8.88;;;6.57;;
75096;SDS011;63684;47.964;11.186;2023-05-25T13:53:27;5.78;;;5.18;;
75096;SDS011;63684;47.964;11.186;2023-05-25T13:55:53;8.20;;;5.78;;
75096;SDS011;63684;47.964;11.186;2023-05-25T13:58:18;10.57;;;6.00;;
75096;SDS011;63684;47.964;11.186;2023-05-25T14:00:44;6.88;;;5.25;;
75096;SDS011;63684;47.964;11.186;2023-05-25T14:03:10;10.63;;;5.47;;
75096;SDS011;63684;47.964;11.186;2023-05-25T14:05:36;8.82;;;5.45;;
75096;SDS011;63684;47.964;11.186;2023-05-25T14:08:01;8.98;;;5.07;;
75096;SDS011;63684;47.964;11.186;2023-05-25T14:10:29;8.88;;;6.18;;
75096;SDS011;63684;47.964;11.186;2023-05-25T14:12:55;6.45;;;5.80;;
75096;SDS011;63684;47.964;11.186;2023-05-25T14:15:20;7.57;;;5.72;;
75096;SDS011;63684;47.964;11.186;2023-05-25T14:17:46;6.80;;;5.82;;
75096;SDS011;63684;47.964;11.186;2023-05-25T14:20:11;9.88;;;5.90;;
75096;SDS011;63684;47.964;11.186;2023-05-25T14:22:40;6.82;;;4.82;;
75096;SDS011;63684;47.964;11.186;2023-05-25T14:25:06;7.53;;;6.28;;
75096;SDS011;63684;47.964;11.186;2023-05-25T14:27:32;6.28;;;5.20;;
75096;SDS011;63684;47.964;11.186;2023-05-25T14:29:57;9.63;;;5.22;;
75096;SDS011;63684;47.964;11.186;2023-05-25T14:32:23;6.18;;;5.53;;
75096;SDS011;63684;47.964;11.186;2023-05-25T14:34:48;8.63;;;6.20;;
75096;SDS011;63684;47.964;11.186;2023-05-25T14:37:13;8.32;;;6.53;;